createdAt,value
2018-12-17T00:01:57.105Z,19.57
2018-12-17T00:04:26.075Z,18.20
2018-12-17T00:06:55.123Z,20.27
2018-12-17T00:09:24.154Z,15.83
2018-12-17T00:11:53.086Z,19.17
2018-12-17T00:14:22.102Z,18.07
2018-12-17T00:16:51.294Z,22.57
2018-12-17T00:19:20.232Z,18.30
2018-12-17T00:21:49.181Z,19.47
2018-12-17T00:24:18.159Z,25.17
2018-12-17T00:26:47.045Z,21.43
2018-12-17T00:29:16.021Z,20.13
2018-12-17T00:31:45.021Z,18.53
2018-12-17T00:34:13.932Z,20.27
2018-12-17T00:36:42.922Z,18.87
2018-12-17T00:39:11.899Z,18.77
2018-12-17T00:41:40.882Z,19.53
2018-12-17T00:44:09.851Z,26.13
2018-12-17T00:46:38.772Z,19.20
2018-12-17T00:49:07.710Z,22.87
2018-12-17T00:51:36.684Z,20.47
2018-12-17T00:54:05.686Z,16.93
2018-12-17T00:56:34.601Z,19.33
2018-12-17T00:59:03.580Z,20.03
2018-12-17T01:01:32.612Z,18.87
2018-12-17T01:04:01.671Z,19.63
2018-12-17T01:06:30.650Z,20.70
2018-12-17T01:08:59.618Z,21.13
2018-12-17T01:11:28.549Z,21.30
2018-12-17T01:13:57.516Z,22.47
2018-12-17T01:16:26.628Z,18.90
2018-12-17T01:18:55.785Z,18.80
2018-12-17T01:21:25.215Z,20.87
2018-12-17T01:23:54.182Z,20.27
2018-12-17T01:26:23.743Z,22.47
2018-12-17T01:28:52.717Z,22.47
2018-12-17T01:31:21.669Z,22.97
2018-12-17T01:33:51.388Z,22.90
2018-12-17T01:36:20.424Z,19.43
2018-12-17T01:38:49.421Z,20.63
2018-12-17T01:41:18.574Z,20.53
2018-12-17T01:43:47.498Z,23.00
2018-12-17T01:46:16.440Z,24.53
2018-12-17T01:48:45.447Z,23.30
2018-12-17T01:51:14.343Z,25.70
2018-12-17T01:53:43.352Z,19.20
2018-12-17T01:56:12.277Z,20.00
2018-12-17T01:58:41.230Z,20.70
2018-12-17T02:01:10.200Z,16.50
2018-12-17T02:03:39.944Z,24.50
2018-12-17T02:06:08.952Z,23.10
2018-12-17T02:08:38.723Z,23.37
2018-12-17T02:11:08.598Z,24.00
2018-12-17T02:13:37.954Z,23.13
2018-12-17T02:16:07.119Z,25.60
2018-12-17T02:18:36.165Z,23.27
2018-12-17T02:21:06.114Z,24.17
2018-12-17T02:23:35.236Z,23.70
2018-12-17T02:26:04.359Z,24.73
2018-12-17T02:28:36.317Z,36.40
2018-12-17T02:31:04.250Z,23.47
2018-12-17T02:33:33.304Z,29.07
2018-12-17T02:36:02.290Z,25.97
2018-12-17T02:38:31.211Z,27.97
2018-12-17T02:41:00.142Z,30.07
2018-12-17T02:43:29.089Z,28.03
2018-12-17T02:45:58.015Z,29.03
2018-12-17T02:48:26.981Z,31.90
2018-12-17T02:50:55.961Z,29.80
2018-12-17T02:53:24.915Z,30.43
2018-12-17T02:55:53.897Z,28.77
2018-12-17T02:58:22.930Z,30.80
2018-12-17T03:00:51.866Z,31.23
2018-12-17T03:03:21.769Z,25.83
2018-12-17T03:05:50.747Z,32.37
2018-12-17T03:08:19.641Z,32.77
2018-12-17T03:10:48.599Z,30.90
2018-12-17T03:13:17.612Z,32.60
2018-12-17T03:15:46.641Z,32.87
2018-12-17T03:18:15.721Z,31.77
2018-12-17T03:20:44.749Z,28.30
2018-12-17T03:23:13.720Z,34.73
2018-12-17T03:25:42.636Z,32.37
2018-12-17T03:28:11.650Z,28.30
2018-12-17T03:30:40.659Z,33.40
2018-12-17T03:33:09.599Z,31.90
2018-12-17T03:35:38.511Z,36.13
2018-12-17T03:38:07.501Z,33.33
2018-12-17T03:40:36.460Z,34.43
2018-12-17T03:43:05.400Z,37.30
2018-12-17T03:45:34.382Z,36.97
2018-12-17T03:48:03.402Z,30.27
2018-12-17T03:50:32.358Z,33.20
2018-12-17T03:53:01.296Z,36.20
2018-12-17T03:55:30.245Z,32.50
2018-12-17T03:57:59.295Z,34.80
2018-12-17T04:00:28.230Z,41.53
2018-12-17T04:02:57.232Z,34.30
2018-12-17T04:05:26.317Z,32.33
2018-12-17T04:07:55.321Z,38.83
2018-12-17T04:10:24.257Z,32.83
2018-12-17T04:12:53.228Z,36.13
2018-12-17T04:15:22.571Z,41.63
2018-12-17T04:17:51.558Z,32.67
2018-12-17T04:20:20.462Z,31.83
2018-12-17T04:22:49.431Z,43.23
2018-12-17T04:25:18.435Z,37.13
2018-12-17T04:27:47.510Z,35.47
2018-12-17T04:30:16.409Z,41.80
2018-12-17T04:32:45.361Z,39.10
2018-12-17T04:35:14.486Z,37.47
2018-12-17T04:37:43.488Z,34.37
2018-12-17T04:40:12.546Z,38.53
2018-12-17T04:42:41.559Z,35.33
2018-12-17T04:45:10.495Z,28.47
2018-12-17T04:47:39.516Z,34.13
2018-12-17T04:50:08.538Z,39.40
2018-12-17T04:52:37.473Z,37.90
2018-12-17T04:55:06.489Z,36.63
2018-12-17T04:57:35.689Z,33.67
2018-12-17T05:00:05.543Z,35.33
2018-12-17T05:02:34.459Z,35.30
2018-12-17T05:05:03.455Z,35.40
2018-12-17T05:07:32.397Z,36.07
2018-12-17T05:10:01.412Z,42.87
2018-12-17T05:12:30.432Z,37.63
2018-12-17T05:14:59.340Z,42.57
2018-12-17T05:17:28.303Z,44.30
2018-12-17T05:19:57.225Z,41.17
2018-12-17T05:22:26.196Z,39.93
2018-12-17T05:24:55.158Z,36.63
2018-12-17T05:27:24.091Z,41.33
2018-12-17T05:29:53.032Z,35.57
2018-12-17T05:32:22.034Z,39.37
2018-12-17T05:34:51.049Z,48.20
2018-12-17T05:37:19.999Z,37.80
2018-12-17T05:39:49.125Z,37.67
2018-12-17T05:42:18.138Z,36.20
2018-12-17T05:44:47.113Z,42.53
2018-12-17T05:47:16.070Z,44.27
2018-12-17T05:49:45.038Z,40.57
2018-12-17T05:52:14.027Z,42.77
2018-12-17T05:54:43.037Z,31.07
2018-12-17T05:57:12.008Z,35.77
2018-12-17T05:59:41.016Z,47.40
2018-12-17T06:02:09.997Z,45.33
2018-12-17T06:04:38.959Z,40.13
2018-12-17T06:07:07.977Z,44.07
2018-12-17T06:09:37.236Z,57.73
2018-12-17T06:12:06.233Z,47.60
2018-12-17T06:14:35.206Z,49.23
2018-12-17T06:17:04.310Z,47.67
2018-12-17T06:19:33.264Z,45.43
2018-12-17T06:22:02.210Z,51.03
2018-12-17T06:24:31.170Z,36.80
2018-12-17T06:29:35.799Z,46.37
2018-12-17T06:32:04.900Z,54.03
2018-12-17T06:34:33.891Z,45.03
2018-12-17T06:37:02.886Z,53.10
2018-12-17T06:39:31.834Z,54.60
2018-12-17T06:42:00.793Z,51.47
2018-12-17T06:44:29.757Z,40.20
2018-12-17T06:46:58.694Z,62.57
2018-12-17T06:49:27.687Z,63.10
2018-12-17T06:51:56.759Z,59.87
2018-12-17T06:54:25.928Z,58.20
2018-12-17T06:56:54.896Z,49.13
2018-12-17T06:59:23.960Z,64.73
2018-12-17T07:01:52.942Z,60.47
2018-12-17T07:04:21.858Z,53.90
2018-12-17T07:06:50.846Z,43.83
2018-12-17T07:09:19.783Z,67.37
2018-12-17T07:11:48.692Z,70.27
2018-12-17T07:14:17.648Z,59.00
2018-12-17T07:16:46.690Z,53.97
2018-12-17T07:19:15.627Z,54.50
2018-12-17T07:21:44.524Z,63.77
2018-12-17T07:24:13.434Z,69.73
2018-12-17T07:26:42.670Z,59.83
2018-12-17T07:29:11.588Z,51.77
2018-12-17T07:31:40.491Z,72.23
2018-12-17T07:34:09.446Z,65.37
2018-12-17T07:36:38.382Z,73.00
2018-12-17T07:39:08.970Z,49.83
2018-12-17T07:41:38.131Z,54.30
2018-12-17T07:44:07.026Z,54.07
2018-12-17T07:46:35.960Z,90.40
2018-12-17T07:49:04.872Z,70.00
2018-12-17T07:51:33.822Z,45.10
2018-12-17T07:54:02.747Z,50.33
2018-12-17T07:56:31.884Z,57.87
2018-12-17T07:59:00.974Z,58.47
2018-12-17T08:01:29.948Z,53.27
2018-12-17T08:03:58.861Z,53.13
2018-12-17T08:06:27.777Z,58.63
2018-12-17T08:08:56.780Z,49.10
2018-12-17T08:11:25.732Z,60.13
2018-12-17T08:13:54.638Z,48.93
2018-12-17T08:16:23.584Z,62.10
2018-12-17T08:18:52.495Z,52.77
2018-12-17T08:21:21.434Z,65.80
2018-12-17T08:23:50.361Z,54.43
2018-12-17T08:26:19.257Z,54.23
2018-12-17T08:28:48.237Z,61.27
2018-12-17T08:31:17.145Z,50.23
2018-12-17T08:33:46.149Z,57.90
2018-12-17T08:36:15.103Z,54.80
2018-12-17T08:38:44.056Z,63.97
2018-12-17T08:41:12.958Z,59.47
2018-12-17T08:43:42.045Z,53.77
2018-12-17T08:46:10.978Z,45.93
2018-12-17T08:48:39.912Z,57.40
2018-12-17T08:51:08.863Z,50.17
2018-12-17T08:53:37.881Z,57.50
2018-12-17T08:56:06.819Z,61.80
2018-12-17T08:58:35.765Z,53.20
2018-12-17T09:01:04.800Z,45.37
2018-12-17T09:03:33.790Z,48.47
2018-12-17T09:06:02.680Z,46.73
2018-12-17T09:08:31.674Z,44.60
2018-12-17T09:11:00.604Z,56.20
2018-12-17T09:13:29.579Z,50.13
2018-12-17T09:15:58.476Z,48.20
2018-12-17T09:18:27.427Z,59.07
2018-12-17T09:20:56.360Z,46.87
2018-12-17T09:23:25.291Z,45.67
2018-12-17T09:25:54.276Z,52.73
2018-12-17T09:28:23.145Z,59.43
2018-12-17T09:30:52.728Z,46.40
2018-12-17T09:33:21.664Z,51.57
2018-12-17T09:35:50.584Z,47.93
2018-12-17T09:38:19.506Z,51.20
2018-12-17T09:40:48.453Z,42.63
2018-12-17T09:43:17.481Z,36.43
2018-12-17T09:45:46.393Z,46.70
2018-12-17T09:48:15.434Z,41.20
2018-12-17T09:50:44.368Z,42.57
2018-12-17T09:53:13.318Z,41.17
2018-12-17T09:55:42.278Z,40.17
2018-12-17T09:58:11.272Z,43.20
2018-12-17T10:00:40.205Z,39.50
2018-12-17T10:03:09.142Z,41.53
2018-12-17T10:05:38.037Z,42.90
2018-12-17T10:08:06.960Z,42.10
2018-12-17T10:10:35.935Z,41.90
2018-12-17T10:13:04.836Z,39.40
2018-12-17T10:15:33.772Z,37.10
2018-12-17T10:18:02.688Z,45.90
2018-12-17T10:20:31.627Z,37.10
2018-12-17T10:23:00.539Z,41.37
2018-12-17T10:25:29.812Z,41.77
2018-12-17T10:27:58.726Z,43.73
2018-12-17T10:30:32.501Z,43.70
2018-12-17T10:32:58.627Z,44.67
2018-12-17T10:35:27.526Z,37.40
2018-12-17T10:37:56.421Z,44.13
2018-12-17T10:40:25.497Z,41.37
2018-12-17T10:42:54.443Z,43.37
2018-12-17T10:45:23.396Z,46.43
2018-12-17T10:47:52.316Z,41.43
2018-12-17T10:50:21.290Z,44.43
2018-12-17T10:52:50.188Z,50.83
2018-12-17T10:55:19.153Z,41.77
2018-12-17T10:57:48.125Z,37.80
2018-12-17T11:00:22.304Z,37.87
2018-12-17T11:02:52.292Z,38.57
2018-12-17T11:05:21.378Z,40.20
2018-12-17T11:07:50.333Z,44.83
2018-12-17T11:10:19.262Z,39.73
2018-12-17T11:12:48.236Z,36.67
2018-12-17T11:15:17.189Z,40.90
2018-12-17T11:17:46.098Z,40.90
2018-12-17T11:20:15.050Z,45.37
2018-12-17T11:22:44.031Z,39.73
2018-12-17T11:25:13.036Z,39.83
2018-12-17T11:27:42.000Z,40.90
2018-12-17T11:30:12.920Z,38.37
2018-12-17T11:32:44.147Z,35.63
2018-12-17T11:35:13.458Z,36.87
2018-12-17T11:37:42.395Z,38.43
2018-12-17T11:40:11.416Z,37.23
2018-12-17T11:42:40.376Z,35.13
2018-12-17T11:45:09.381Z,37.60
2018-12-17T11:47:38.304Z,34.10
2018-12-17T11:50:07.973Z,39.77
2018-12-17T11:52:36.877Z,36.77
2018-12-17T11:55:06.507Z,38.53
2018-12-17T11:58:38.699Z,33.60
2018-12-17T12:01:08.673Z,37.07
2018-12-17T12:03:40.499Z,41.03
2018-12-17T12:06:13.904Z,31.23
2018-12-17T12:08:40.462Z,36.97
2018-12-17T12:11:09.347Z,30.77
2018-12-17T12:13:38.320Z,43.07
2018-12-17T12:16:07.247Z,36.23
2018-12-17T12:18:36.196Z,33.30
2018-12-17T12:21:05.224Z,42.90
2018-12-17T12:23:34.200Z,31.37
2018-12-17T12:26:03.131Z,36.30
2018-12-17T12:28:32.084Z,40.63
2018-12-17T12:31:01.044Z,39.57
2018-12-17T12:33:30.530Z,36.23
2018-12-17T12:35:59.502Z,30.80
2018-12-17T12:38:28.410Z,32.57
2018-12-17T12:40:57.358Z,32.00
2018-12-17T12:43:26.240Z,27.70
2018-12-17T12:45:55.638Z,33.93
2018-12-17T12:48:24.571Z,28.60
2018-12-17T12:50:53.595Z,33.13
2018-12-17T12:53:22.586Z,31.37
2018-12-17T12:55:51.505Z,32.27
2018-12-17T12:58:20.423Z,39.07
2018-12-17T13:00:49.407Z,26.33
2018-12-17T13:03:18.348Z,28.30
2018-12-17T13:05:47.275Z,27.43
2018-12-17T13:08:16.241Z,27.57
2018-12-17T13:10:45.226Z,29.53
2018-12-17T13:13:14.167Z,38.50
2018-12-17T13:15:43.076Z,30.13
2018-12-17T13:18:11.984Z,28.40
2018-12-17T13:20:40.943Z,26.53
2018-12-17T13:23:09.886Z,26.70
2018-12-17T13:25:42.518Z,28.00
2018-12-17T13:28:11.430Z,29.90
2018-12-17T13:30:40.403Z,26.77
2018-12-17T13:33:09.293Z,33.60
2018-12-17T13:35:38.190Z,28.33
2018-12-17T13:38:07.179Z,27.87
2018-12-17T13:40:36.168Z,31.53
2018-12-17T13:43:05.385Z,34.27
2018-12-17T13:45:34.264Z,30.50
2018-12-17T13:48:03.287Z,26.97
2018-12-17T13:50:36.209Z,27.20
2018-12-17T13:53:10.923Z,27.03
2018-12-17T13:55:39.891Z,22.00
2018-12-17T13:58:08.976Z,26.07
2018-12-17T14:00:38.018Z,29.20
2018-12-17T14:03:06.935Z,28.03
2018-12-17T14:05:35.887Z,24.23
2018-12-17T14:08:04.894Z,27.53
2018-12-17T14:10:39.177Z,29.93
2018-12-17T14:13:08.077Z,26.00
2018-12-17T14:15:42.487Z,26.53
2018-12-17T14:18:16.775Z,27.63
2018-12-17T14:21:49.450Z,21.03
2018-12-17T14:24:18.343Z,26.77
2018-12-17T14:26:47.300Z,28.30
2018-12-17T14:29:16.213Z,22.23
2018-12-17T14:31:45.205Z,30.37
2018-12-17T14:34:14.123Z,26.60
2018-12-17T14:36:43.039Z,23.67
2018-12-17T14:39:11.941Z,25.13
2018-12-17T14:41:40.904Z,22.33
2018-12-17T14:44:15.176Z,21.77
2018-12-17T14:46:49.518Z,18.97
2018-12-17T14:49:18.430Z,22.73
2018-12-17T14:51:47.352Z,27.70
2018-12-17T14:54:16.293Z,25.90
2018-12-17T14:56:45.327Z,23.53
2018-12-17T14:59:14.278Z,21.93
2018-12-17T15:01:43.196Z,20.77
2018-12-17T15:04:12.101Z,22.00
2018-12-17T15:06:41.044Z,21.40
2018-12-17T15:09:10.098Z,17.63
2018-12-17T15:11:39.054Z,24.50
2018-12-17T15:14:07.979Z,21.60
2018-12-17T15:16:37.005Z,23.23
2018-12-17T15:19:05.919Z,22.60
2018-12-17T15:21:34.871Z,20.97
2018-12-17T15:24:03.775Z,22.77
2018-12-17T15:26:32.850Z,18.37
2018-12-17T15:29:01.770Z,20.10
2018-12-17T15:31:30.741Z,22.73
2018-12-17T15:33:59.744Z,18.10
2018-12-17T15:36:28.744Z,18.10
2018-12-17T15:38:57.641Z,20.07
2018-12-17T15:41:26.577Z,20.87
2018-12-17T15:43:55.622Z,23.20
2018-12-17T15:46:24.518Z,20.07
2018-12-17T15:48:53.612Z,20.43
2018-12-17T15:51:22.586Z,20.20
2018-12-17T15:53:51.485Z,19.70
2018-12-17T15:56:20.419Z,19.00
2018-12-17T15:58:49.342Z,28.50
2018-12-17T16:01:18.248Z,17.60
2018-12-17T16:03:47.208Z,22.60
2018-12-17T16:06:18.476Z,22.63
2018-12-17T16:08:47.465Z,20.57
2018-12-17T16:11:16.432Z,26.83
2018-12-17T16:13:45.306Z,20.83
2018-12-17T16:16:14.250Z,20.80
2018-12-17T16:18:43.664Z,22.43
2018-12-17T16:21:12.690Z,19.40
2018-12-17T16:23:41.652Z,18.53
2018-12-17T16:26:10.727Z,19.43
2018-12-17T16:28:39.687Z,21.67
2018-12-17T16:31:08.610Z,19.43
2018-12-17T16:33:37.763Z,20.87
2018-12-17T16:36:06.671Z,19.17
2018-12-17T16:38:35.565Z,17.93
2018-12-17T16:41:04.512Z,19.07
2018-12-17T16:43:33.410Z,15.00
2018-12-17T16:46:03.676Z,22.37
2018-12-17T16:48:36.416Z,14.53
2018-12-17T16:51:05.362Z,23.13
2018-12-17T16:53:34.325Z,21.17
2018-12-17T16:56:03.288Z,18.67
2018-12-17T16:58:32.223Z,14.13
2018-12-17T17:01:01.141Z,28.83
2018-12-17T17:03:30.110Z,19.40
2018-12-17T17:05:59.009Z,19.37
2018-12-17T17:08:27.981Z,18.47
2018-12-17T17:10:57.874Z,18.37
2018-12-17T17:13:26.791Z,16.33
2018-12-17T17:15:55.725Z,19.07
2018-12-17T17:18:24.614Z,17.33
2018-12-17T17:20:54.230Z,15.90
2018-12-17T17:23:23.152Z,17.27
2018-12-17T17:25:52.141Z,16.50
2018-12-17T17:28:21.059Z,18.77
2018-12-17T17:30:49.952Z,17.00
2018-12-17T17:33:18.855Z,19.03
2018-12-17T17:35:47.872Z,18.53
2018-12-17T17:38:16.874Z,18.33
2018-12-17T17:40:46.101Z,17.47
2018-12-17T17:43:15.142Z,19.50
2018-12-17T17:45:44.111Z,16.17
2018-12-17T17:48:13.185Z,16.20
2018-12-17T17:50:42.250Z,17.23
2018-12-17T17:53:11.184Z,13.70
2018-12-17T17:55:40.097Z,16.03
2018-12-17T17:58:09.137Z,19.70
2018-12-17T18:00:38.033Z,21.67
2018-12-17T18:03:07.096Z,17.57
2018-12-17T18:05:36.151Z,21.17
2018-12-17T18:08:05.123Z,19.33
2018-12-17T18:10:34.062Z,25.23
2018-12-17T18:13:03.111Z,17.47
2018-12-17T18:15:32.049Z,17.97
2018-12-17T18:18:01.430Z,17.83
2018-12-17T18:20:30.426Z,15.67
2018-12-17T18:22:59.396Z,16.17
2018-12-17T18:25:29.125Z,18.90
2018-12-17T18:27:58.085Z,17.77
2018-12-17T18:30:27.056Z,16.80
2018-12-17T18:32:56.014Z,17.47
2018-12-17T18:35:25.014Z,19.60
2018-12-17T18:37:54.009Z,16.83
2018-12-17T18:40:22.973Z,23.00
2018-12-17T18:42:51.937Z,13.57
2018-12-17T18:45:20.958Z,16.63
2018-12-17T18:47:49.953Z,19.33
2018-12-17T18:50:18.920Z,16.13
2018-12-17T18:52:47.900Z,17.50
2018-12-17T18:55:16.925Z,19.30
2018-12-17T18:57:46.040Z,18.73
2018-12-17T19:00:14.979Z,15.67
2018-12-17T19:02:44.028Z,18.13
2018-12-17T19:05:12.973Z,21.80
2018-12-17T19:07:41.966Z,17.03
2018-12-17T19:10:10.980Z,16.03
2018-12-17T19:12:39.939Z,15.80
2018-12-17T19:15:08.974Z,17.87
2018-12-17T19:17:37.963Z,20.50
2018-12-17T19:20:07.097Z,26.60
2018-12-17T19:22:36.129Z,15.27
2018-12-17T19:25:06.244Z,15.87
2018-12-17T19:27:35.236Z,17.50
2018-12-17T19:30:04.422Z,18.03
2018-12-17T19:32:39.984Z,20.53
2018-12-17T19:35:04.627Z,17.27
2018-12-17T19:37:33.786Z,17.00
2018-12-17T19:40:02.912Z,21.37
2018-12-17T19:42:32.262Z,17.37
2018-12-17T19:45:01.309Z,17.97
2018-12-17T19:47:30.229Z,19.97
2018-12-17T19:49:59.208Z,20.00
2018-12-17T19:52:28.473Z,20.80
2018-12-17T19:54:57.448Z,15.27
2018-12-17T19:57:26.461Z,15.47
2018-12-17T19:59:55.495Z,15.13
2018-12-17T20:02:24.820Z,21.90
2018-12-17T20:04:53.749Z,18.97
2018-12-17T20:07:22.759Z,16.70
2018-12-17T20:09:51.785Z,22.53
2018-12-17T20:12:20.767Z,17.17
2018-12-17T20:14:49.726Z,18.50
2018-12-17T20:17:18.749Z,21.07
2018-12-17T20:19:47.693Z,17.40
2018-12-17T20:22:16.788Z,17.27
2018-12-17T20:24:45.734Z,18.53
2018-12-17T20:27:14.731Z,18.47
2018-12-17T20:29:50.252Z,17.37
2018-12-17T20:32:14.768Z,15.20
2018-12-17T20:34:43.738Z,24.13
2018-12-17T20:37:12.795Z,18.83
2018-12-17T20:39:41.800Z,16.40
2018-12-17T20:42:10.814Z,23.60
2018-12-17T20:44:39.792Z,15.10
2018-12-17T20:47:08.782Z,19.87
2018-12-17T20:49:37.862Z,18.23
2018-12-17T20:52:06.833Z,16.97
2018-12-17T20:54:36.688Z,23.30
2018-12-17T20:57:05.663Z,15.03
2018-12-17T20:59:34.658Z,16.60
2018-12-17T21:02:03.643Z,18.63
2018-12-17T21:04:32.653Z,19.00
2018-12-17T21:07:01.628Z,18.27
2018-12-17T21:09:30.580Z,19.07
2018-12-17T21:11:59.644Z,18.77
2018-12-17T21:14:28.600Z,20.73
2018-12-17T21:16:57.537Z,15.83
2018-12-17T21:19:26.849Z,19.20
2018-12-17T21:21:55.939Z,23.17
2018-12-17T21:24:24.873Z,20.27
2018-12-17T21:26:53.874Z,18.47
2018-12-17T21:29:22.862Z,18.90
2018-12-17T21:31:51.836Z,18.03
2018-12-17T21:34:22.252Z,19.17
2018-12-17T21:36:51.419Z,21.80
2018-12-17T21:39:20.430Z,21.80
2018-12-17T21:41:49.352Z,21.77
2018-12-17T21:44:18.740Z,23.67
2018-12-17T21:46:47.700Z,22.07
2018-12-17T21:49:16.692Z,22.53
2018-12-17T21:51:45.645Z,17.63
2018-12-17T21:54:14.568Z,24.83
2018-12-17T21:56:43.480Z,20.13
2018-12-17T21:59:12.417Z,22.53
2018-12-17T22:01:41.341Z,20.83
2018-12-17T22:04:10.289Z,21.70
2018-12-17T22:06:39.568Z,24.03
2018-12-17T22:09:08.529Z,20.97
2018-12-17T22:11:37.519Z,21.37
2018-12-17T22:14:06.707Z,21.17
2018-12-17T22:16:35.649Z,19.90
2018-12-17T22:19:04.661Z,16.00
2018-12-17T22:21:33.703Z,19.83
2018-12-17T22:24:02.728Z,24.67
2018-12-17T22:26:31.868Z,16.97
2018-12-17T22:29:00.850Z,21.37
2018-12-17T22:31:29.740Z,23.07
2018-12-17T22:33:58.706Z,18.47
2018-12-17T22:36:27.672Z,19.17
2018-12-17T22:38:56.816Z,28.83
2018-12-17T22:41:25.869Z,24.60
2018-12-17T22:43:56.519Z,17.03
2018-12-17T22:46:25.510Z,24.27
2018-12-17T22:48:55.543Z,22.33
2018-12-17T22:51:24.515Z,23.20
2018-12-17T22:53:53.434Z,21.70
2018-12-17T22:56:22.352Z,26.93
2018-12-17T22:58:51.353Z,25.27
2018-12-17T23:01:20.308Z,23.80
2018-12-17T23:03:49.220Z,24.07
2018-12-17T23:06:18.244Z,23.53
2018-12-17T23:08:58.520Z,22.43
2018-12-17T23:11:42.999Z,29.07
2018-12-17T23:14:24.843Z,32.17
2018-12-17T23:17:05.050Z,24.37
2018-12-17T23:19:40.327Z,28.20
2018-12-17T23:22:11.635Z,41.17
2018-12-17T23:24:40.689Z,25.23
2018-12-17T23:27:23.667Z,32.20
2018-12-17T23:29:58.194Z,27.87
2018-12-17T23:32:32.991Z,30.37
2018-12-17T23:35:03.028Z,29.70
2018-12-17T23:37:36.598Z,27.80
2018-12-17T23:40:10.245Z,26.73
2018-12-17T23:42:41.883Z,42.27
2018-12-17T23:45:13.439Z,26.73
2018-12-17T23:47:45.071Z,26.67
2018-12-17T23:50:15.216Z,32.00
2018-12-17T23:52:46.328Z,31.27
2018-12-17T23:55:16.053Z,29.03
2018-12-17T23:57:45.584Z,30.93
